Time;durP1;ratioP1;P1;durP2;ratioP2;P2;SDS_P1;SDS_P2;PMS_P1;PMS_P2;Temp;Humidity;BMP_temperature;BMP_pressure;BME280_temperature;BME280_humidity;BME280_pressure;Samples;Min_cycle;Max_cycle;Signal;HPM_P1;HPM_P2
2024/03/02 00:00:59;;;;;;;45.22;25.80;;;;;;;4.25;100.00;94835.75;2098258;28;20051;-63
2024/03/02 00:02:00;;;;;;;49.00;27.55;;;;;;;4.25;100.00;94824.59;2098792;28;20033;-64
2024/03/02 00:03:01;;;;;;;49.60;30.77;;;;;;;4.25;100.00;94832.31;2098289;28;20488;-64
2024/03/02 00:04:04;;;;;;;48.10;27.42;;;;;;;4.23;100.00;94823.84;2098638;28;20032;-64
2024/03/02 00:05:06;;;;;;;45.08;24.77;;;;;;;4.23;100.00;94826.41;2098383;28;20154;-64
2024/03/02 00:06:07;;;;;;;44.80;27.83;;;;;;;4.24;100.00;94826.34;2098430;28;20037;-64
2024/03/02 00:07:08;;;;;;;49.45;30.90;;;;;;;4.29;100.00;94831.31;2098413;28;20374;-63
2024/03/02 00:08:09;;;;;;;46.97;29.48;;;;;;;4.26;100.00;94827.13;2098522;28;20036;-63
2024/03/02 00:09:12;;;;;;;42.90;24.38;;;;;;;4.24;100.00;94822.94;2098884;28;20048;-64
2024/03/02 00:10:16;;;;;;;44.50;25.67;;;;;;;4.19;100.00;94823.94;2089476;28;20071;-63
2024/03/02 00:11:18;;;;;;;47.85;26.77;;;;;;;4.23;100.00;94829.00;2082132;28;20533;-64
2024/03/02 00:12:21;;;;;;;42.63;26.13;;;;;;;4.23;100.00;94823.84;2090142;28;20041;-64
2024/03/02 00:13:23;;;;;;;45.55;25.30;;;;;;;4.23;100.00;94823.84;2098628;28;20044;-64
2024/03/02 00:14:24;;;;;;;42.85;26.33;;;;;;;4.21;100.00;94818.75;2098303;28;20056;-63
2024/03/02 00:15:37;;;;;;;43.30;25.35;;;;;;;4.22;100.00;94824.72;2098461;28;20041;-65
2024/03/02 00:16:38;;;;;;;40.78;25.02;;;;;;;4.20;100.00;94825.63;2098563;28;20040;-63
2024/03/02 00:17:40;;;;;;;44.15;26.10;;;;;;;4.26;100.00;94824.56;2098262;28;20052;-63
2024/03/02 00:18:42;;;;;;;42.88;26.85;;;;;;;4.26;100.00;94827.13;2098593;28;20036;-65
2024/03/02 00:19:43;;;;;;;46.03;29.42;;;;;;;4.28;100.00;94825.34;2098555;28;20040;-64
2024/03/02 00:20:44;;;;;;;44.53;24.88;;;;;;;4.24;100.00;94828.09;2098567;28;20047;-64
2024/03/02 00:21:45;;;;;;;39.72;23.70;;;;;;;4.25;100.00;94824.59;2098319;28;20094;-63
2024/03/02 00:22:46;;;;;;;38.78;25.70;;;;;;;4.28;100.00;94829.63;2097723;28;20493;-64
2024/03/02 00:23:48;;;;;;;45.05;27.23;;;;;;;4.25;100.00;94832.31;2098629;28;20040;-63
2024/03/02 00:24:49;;;;;;;39.22;23.70;;;;;;;4.25;100.00;94827.16;2098501;28;20033;-64
2024/03/02 00:25:55;;;;;;;38.05;21.80;;;;;;;4.22;100.00;94835.00;2098562;28;20036;-64
2024/03/02 00:26:56;;;;;;;35.42;21.80;;;;;;;4.23;100.00;94832.38;2098013;28;20052;-64
2024/03/02 00:27:57;;;;;;;36.60;22.00;;;;;;;4.23;100.00;94831.56;2098039;28;20071;-64
2024/03/02 00:28:59;;;;;;;38.53;23.02;;;;;;;4.24;100.00;94828.91;2098171;28;20052;-63
2024/03/02 00:30:01;;;;;;;41.90;25.73;;;;;;;4.24;100.00;94831.47;2089763;28;20025;-66
2024/03/02 00:31:11;;;;;;;39.60;24.23;;;;;;;4.27;100.00;94822.81;2089288;28;20511;-64
2024/03/02 00:32:13;;;;;;;36.03;19.65;;;;;;;4.23;100.00;94824.69;2097877;28;20048;-64
2024/03/02 00:33:14;;;;;;;37.80;24.52;;;;;;;4.25;100.00;94830.59;2089614;28;20044;-64
2024/03/02 00:34:16;;;;;;;43.72;25.25;;;;;;;4.25;100.00;94824.59;2080776;28;20060;-65
2024/03/02 00:35:23;;;;;;;35.17;23.20;;;;;;;4.21;100.00;94831.59;2089023;28;20060;-64
2024/03/02 00:36:27;;;;;;;43.45;25.60;;;;;;;4.26;100.00;94836.56;2081389;28;20046;-63
2024/03/02 00:37:29;;;;;;;35.20;23.33;;;;;;;4.23;100.00;94832.38;2082137;28;20044;-64
2024/03/02 00:38:30;;;;;;;37.47;23.48;;;;;;;4.26;100.00;94832.25;2073120;28;20053;-64
2024/03/02 00:39:32;;;;;;;34.15;20.27;;;;;;;4.23;100.00;94834.13;2072922;28;20109;-65
2024/03/02 00:40:33;;;;;;;39.00;24.88;;;;;;;4.28;100.00;94829.63;2097541;28;20048;-64
2024/03/02 00:41:35;;;;;;;39.45;22.67;;;;;;;4.22;100.00;94830.69;2097803;28;20052;-64
2024/03/02 00:42:36;;;;;;;35.60;24.02;;;;;;;4.22;100.00;94835.00;2089453;28;20473;-64
2024/03/02 00:44:03;;;;;;;36.92;22.98;;;;;;;4.24;100.00;94839.19;2090034;28;20037;-64
2024/03/02 00:45:07;;;;;;;36.00;22.75;;;;;;;4.25;100.00;94834.88;2098253;28;20051;-64
2024/03/02 00:46:09;;;;;;;38.78;26.13;;;;;;;4.27;100.00;94838.22;2081217;28;20044;-64
2024/03/02 00:47:10;;;;;;;37.53;25.42;;;;;;;4.27;100.00;94839.06;2072959;28;20521;-64
2024/03/02 00:48:11;;;;;;;39.40;26.38;;;;;;;4.26;100.00;94841.72;2089460;28;20037;-64
2024/03/02 00:49:20;;;;;;;40.08;25.65;;;;;;;4.27;100.00;94836.50;2098367;28;20047;-65
2024/03/02 00:50:21;;;;;;;39.45;23.70;;;;;;;4.26;100.00;94839.97;2088953;28;20053;-64
2024/03/02 00:51:25;;;;;;;41.35;25.42;;;;;;;4.26;100.00;94834.81;2087496;28;20048;-64
2024/03/02 00:52:26;;;;;;;41.33;25.80;;;;;;;4.24;100.00;94836.63;2098330;28;20057;-64
2024/03/02 00:53:27;;;;;;;39.05;25.90;;;;;;;4.24;100.00;94833.22;2098292;28;20040;-64
2024/03/02 00:54:28;;;;;;;42.53;26.45;;;;;;;4.23;100.00;94839.28;2088912;28;20052;-65
2024/03/02 00:55:29;;;;;;;39.65;26.25;;;;;;;4.21;100.00;94844.47;2089561;28;20048;-64
2024/03/02 00:56:31;;;;;;;39.22;24.25;;;;;;;4.18;100.00;94840.28;2080890;28;20056;-65
2024/03/02 00:57:34;;;;;;;41.20;26.08;;;;;;;4.17;100.00;94842.91;2081491;28;20125;-64
2024/03/02 00:58:35;;;;;;;41.15;25.13;;;;;;;4.16;100.00;94836.09;2081298;28;20033;-64
2024/03/02 00:59:36;;;;;;;32.90;19.17;;;;;;;4.14;100.00;94838.75;2081858;28;20417;-65
2024/03/02 01:00:37;;;;;;;37.15;22.05;;;;;;;4.13;100.00;94843.94;2097787;28;20052;-64
2024/03/02 01:01:38;;;;;;;35.35;21.63;;;;;;;4.13;100.00;94843.94;2097729;28;20048;-65
2024/03/02 01:02:39;;;;;;;38.97;24.90;;;;;;;4.16;100.00;94844.63;2098452;28;20040;-64
2024/03/02 01:03:41;;;;;;;36.47;21.95;;;;;;;4.14;100.00;94836.19;2097664;28;20051;-64
2024/03/02 01:04:42;;;;;;;35.72;23.88;;;;;;;4.17;100.00;94837.75;2097593;28;20071;-64
2024/03/02 01:05:43;;;;;;;37.78;23.55;;;;;;;4.15;100.00;94842.16;2098397;28;20040;-64
2024/03/02 01:06:45;;;;;;;32.28;19.70;;;;;;;4.10;100.00;94839.75;2097665;28;20044;-63
2024/03/02 01:07:46;;;;;;;34.47;19.40;;;;;;;4.10;100.00;94842.31;2098282;28;20408;-64
2024/03/02 01:08:50;;;;;;;31.10;19.63;;;;;;;4.10;100.00;94839.75;2097747;28;20056;-63
2024/03/02 01:09:52;;;;;;;38.58;22.27;;;;;;;4.09;100.00;94845.81;2098385;28;20040;-63
2024/03/02 01:10:53;;;;;;;35.85;22.42;;;;;;;4.13;100.00;94846.50;2098267;28;20041;-64
2024/03/02 01:11:55;;;;;;;34.47;22.15;;;;;;;4.11;100.00;94838.00;2098002;28;20044;-63
2024/03/02 01:12:57;;;;;;;38.03;21.90;;;;;;;4.06;100.00;94839.94;2098201;28;20480;-64
2024/03/02 01:13:58;;;;;;;34.97;19.95;;;;;;;4.07;100.00;94841.63;2099270;28;20044;-64
2024/03/02 01:14:59;;;;;;;36.33;20.20;;;;;;;4.07;100.00;94847.59;2100004;28;20048;-64
2024/03/02 01:16:00;;;;;;;35.97;20.55;;;;;;;4.05;100.00;94848.53;2099191;28;20044;-64
2024/03/02 01:17:04;;;;;;;37.35;21.30;;;;;;;4.05;100.00;94841.66;2099664;28;20052;-64
2024/03/02 01:18:05;;;;;;;34.08;21.13;;;;;;;4.05;100.00;94841.66;2099328;28;20048;-64
2024/03/02 01:19:06;;;;;;;37.85;25.10;;;;;;;4.08;100.00;94846.69;2099911;28;20040;-64
2024/03/02 01:20:10;;;;;;;39.08;25.35;;;;;;;4.11;100.00;94845.72;2099038;28;20072;-63
2024/03/02 01:21:11;;;;;;;36.28;20.92;;;;;;;4.08;100.00;94838.16;2099233;28;20507;-63
2024/03/02 01:22:12;;;;;;;33.13;19.80;;;;;;;4.05;100.00;94831.41;2099860;28;20040;-64
2024/03/02 01:23:14;;;;;;;36.25;20.63;;;;;;;4.03;100.00;94833.19;2099906;28;20047;-64
2024/03/02 01:24:15;;;;;;;35.53;22.10;;;;;;;4.08;100.00;94833.00;2099837;28;20037;-64
2024/03/02 01:25:16;;;;;;;33.50;19.48;;;;;;;4.06;100.00;94838.19;2099362;28;20485;-64
2024/03/02 01:26:17;;;;;;;36.60;20.38;;;;;;;4.05;100.00;94838.28;2099992;28;20029;-64
2024/03/02 01:27:18;;;;;;;38.67;24.40;;;;;;;4.09;100.00;94838.09;2099811;28;20048;-65
2024/03/02 01:28:20;;;;;;;36.63;21.85;;;;;;;4.06;100.00;94835.63;2099886;28;20045;-64
2024/03/02 01:29:21;;;;;;;34.50;20.65;;;;;;;4.04;100.00;94828.91;2099884;28;20040;-65
2024/03/02 01:30:22;;;;;;;36.63;21.80;;;;;;;4.07;100.00;94832.19;2100012;28;20043;-64
2024/03/02 01:31:23;;;;;;;35.22;20.95;;;;;;;4.04;100.00;94831.47;2099433;28;20063;-64
2024/03/02 01:32:24;;;;;;;34.30;19.02;;;;;;;4.04;100.00;94827.16;2099079;28;20040;-64
2024/03/02 01:33:26;;;;;;;35.85;21.27;;;;;;;4.00;100.00;94825.59;2099685;28;20048;-64
2024/03/02 01:34:27;;;;;;;38.58;21.02;;;;;;;3.98;100.00;94833.38;2099452;28;20496;-64
2024/03/02 01:35:28;;;;;;;33.70;20.88;;;;;;;4.01;100.00;94827.28;2099911;28;20080;-64
2024/03/02 01:36:29;;;;;;;40.47;25.17;;;;;;;4.05;100.00;94828.81;2099404;28;20059;-64
2024/03/02 01:37:30;;;;;;;34.83;20.30;;;;;;;4.04;100.00;94831.47;2099560;28;20416;-64
2024/03/02 01:38:31;;;;;;;34.08;21.63;;;;;;;4.04;100.00;94831.47;2090620;28;20056;-65
2024/03/02 01:39:32;;;;;;;36.85;21.83;;;;;;;3.98;100.00;94828.25;2091179;28;20056;-65
2024/03/02 01:40:34;;;;;;;32.72;18.80;;;;;;;4.00;100.00;94832.47;2100721;28;20048;-63
2024/03/02 01:41:35;;;;;;;38.47;23.52;;;;;;;4.02;100.00;94826.38;2091706;28;20120;-63
2024/03/02 01:42:37;;;;;;;33.85;19.95;;;;;;;3.98;100.00;94835.09;2091478;28;20055;-63
2024/03/02 01:43:38;;;;;;;34.47;19.98;;;;;;;3.97;100.00;94830.88;2099838;28;20424;-63
2024/03/02 01:44:40;;;;;;;37.10;21.35;;;;;;;3.97;100.00;94831.69;2099227;28;20029;-64
2024/03/02 01:45:41;;;;;;;35.13;20.77;;;;;;;3.96;100.00;94830.03;2099190;28;20400;-63
2024/03/02 01:46:42;;;;;;;36.50;21.10;;;;;;;3.93;100.00;94830.16;2091085;28;20037;-64
2024/03/02 01:47:43;;;;;;;38.20;21.88;;;;;;;3.93;100.00;94826.75;2090595;28;20048;-64
2024/03/02 01:48:44;;;;;;;35.05;22.65;;;;;;;3.98;100.00;94825.69;2099696;28;20055;-64
2024/03/02 01:49:45;;;;;;;44.80;26.73;;;;;;;3.98;100.00;94828.25;2099389;28;20055;-64
2024/03/02 01:50:46;;;;;;;41.97;27.05;;;;;;;3.98;100.00;94825.69;2099623;28;20041;-64
2024/03/02 01:51:47;;;;;;;39.38;25.58;;;;;;;3.98;100.00;94827.38;2099683;28;20036;-63
2024/03/02 01:52:49;;;;;;;39.50;23.77;;;;;;;3.94;100.00;94820.72;2099969;28;20043;-65
2024/03/02 01:53:50;;;;;;;33.78;18.90;;;;;;;3.93;100.00;94822.47;2099109;28;20472;-65
2024/03/02 01:54:51;;;;;;;34.03;20.13;;;;;;;3.94;100.00;94823.28;2099119;28;20499;-64
2024/03/02 01:55:52;;;;;;;44.10;25.70;;;;;;;3.97;100.00;94818.84;2099633;28;20037;-64
2024/03/02 01:56:53;;;;;;;38.55;25.00;;;;;;;3.97;100.00;94821.41;2099551;28;20048;-64
2024/03/02 01:57:54;;;;;;;43.67;27.40;;;;;;;3.96;100.00;94816.38;2099090;28;20072;-64
2024/03/02 01:58:55;;;;;;;40.15;24.52;;;;;;;3.98;100.00;94822.25;2090931;28;20036;-64
2024/03/02 01:59:56;;;;;;;38.38;23.42;;;;;;;3.93;100.00;94822.47;2090586;28;20048;-64
2024/03/02 02:00:58;;;;;;;39.55;25.00;;;;;;;3.92;100.00;94818.19;2099243;28;20051;-63
2024/03/02 02:01:59;;;;;;;42.70;27.20;;;;;;;3.95;100.00;94815.50;2099851;28;20055;-63
2024/03/02 02:03:00;;;;;;;39.25;21.95;;;;;;;3.93;100.00;94813.94;2099297;28;20048;-65
2024/03/02 02:04:01;;;;;;;37.10;21.58;;;;;;;3.92;100.00;94814.81;2099072;28;20048;-65
2024/03/02 02:05:03;;;;;;;40.88;25.00;;;;;;;3.90;100.00;94809.75;2089802;28;20049;-64
2024/03/02 02:06:04;;;;;;;40.17;23.02;;;;;;;3.90;100.00;94814.88;2082163;28;20488;-65
2024/03/02 02:07:06;;;;;;;39.30;22.42;;;;;;;3.86;100.00;94810.75;2082458;28;20485;-65
2024/03/02 02:08:07;;;;;;;40.97;24.50;;;;;;;3.89;100.00;94808.06;2090991;28;20033;-65
2024/03/02 02:09:08;;;;;;;34.53;19.98;;;;;;;3.88;100.00;94806.41;2099575;28;20040;-64
2024/03/02 02:10:10;;;;;;;43.75;26.65;;;;;;;3.89;100.00;94813.19;2098665;28;20472;-65
2024/03/02 02:11:12;;;;;;;38.45;23.05;;;;;;;3.89;100.00;94809.78;2099176;28;20048;-64
2024/03/02 02:12:13;;;;;;;37.30;21.90;;;;;;;3.89;100.00;94814.94;2082344;28;20033;-64
2024/03/02 02:13:14;;;;;;;40.20;23.42;;;;;;;3.90;100.00;94814.03;2082123;28;20065;-65
2024/03/02 02:14:15;;;;;;;38.35;23.65;;;;;;;3.88;100.00;94811.53;2090127;28;20075;-64
2024/03/02 02:15:29;;;;;;;41.83;24.60;;;;;;;3.91;100.00;94810.56;2090674;28;20428;-64
2024/03/02 02:16:30;;;;;;;37.67;21.02;;;;;;;3.86;100.00;94813.31;2091996;28;20049;-65
2024/03/02 02:17:31;;;;;;;39.33;22.10;;;;;;;3.88;100.00;94810.69;2099503;28;20115;-65
2024/03/02 02:18:32;;;;;;;36.40;21.42;;;;;;;3.88;100.00;94808.97;2099685;28;20044;-64
2024/03/02 02:19:33;;;;;;;37.08;22.67;;;;;;;3.88;100.00;94808.97;2099466;28;20047;-64
2024/03/02 02:20:34;;;;;;;42.15;25.73;;;;;;;3.90;100.00;94811.44;2090221;28;20057;-65
2024/03/02 02:21:35;;;;;;;41.60;26.35;;;;;;;3.92;100.00;94802.78;2090364;28;20057;-64
2024/03/02 02:22:37;;;;;;;41.58;25.98;;;;;;;3.91;100.00;94808.84;2099371;28;20047;-64
2024/03/02 02:23:38;;;;;;;46.95;28.17;;;;;;;3.91;100.00;94808.00;2098845;28;20049;-65
2024/03/02 02:24:42;;;;;;;41.58;26.73;;;;;;;3.93;100.00;94804.47;2098923;28;20382;-64
2024/03/02 02:25:43;;;;;;;41.67;25.88;;;;;;;3.93;100.00;94808.78;2099225;28;20048;-65
2024/03/02 02:26:44;;;;;;;43.85;26.33;;;;;;;3.92;100.00;94813.06;2099168;28;20060;-65
2024/03/02 02:27:45;;;;;;;44.85;25.30;;;;;;;3.90;100.00;94804.59;2099425;28;20047;-65
2024/03/02 02:28:47;;;;;;;41.47;25.35;;;;;;;3.90;100.00;94804.59;2099365;28;20040;-64
2024/03/02 02:29:48;;;;;;;38.80;22.13;;;;;;;3.90;100.00;94807.19;2098721;28;20507;-65
2024/03/02 02:30:49;;;;;;;45.65;28.13;;;;;;;3.96;100.00;94808.66;2099356;28;20032;-64
2024/03/02 02:31:50;;;;;;;35.97;20.58;;;;;;;3.91;100.00;94805.44;2098458;28;20052;-64
2024/03/02 02:32:51;;;;;;;43.95;27.58;;;;;;;3.94;100.00;94807.88;2099408;28;20041;-65
2024/03/02 02:33:52;;;;;;;39.75;24.60;;;;;;;3.90;100.00;94802.03;2099409;28;20392;-64
2024/03/02 02:34:54;;;;;;;40.85;26.77;;;;;;;3.94;100.00;94805.31;2098734;28;20037;-65
2024/03/02 02:35:55;;;;;;;38.75;23.63;;;;;;;3.91;100.00;94811.41;2099444;28;20032;-64
2024/03/02 02:36:56;;;;;;;42.13;22.52;;;;;;;3.92;100.00;94812.22;2099549;28;20060;-64
2024/03/02 02:37:58;;;;;;;36.10;22.45;;;;;;;3.94;100.00;94811.28;2099631;28;20032;-64
2024/03/02 02:39:03;;;;;;;44.25;28.20;;;;;;;3.95;100.00;94810.38;2090449;28;20492;-64
2024/03/02 02:40:04;;;;;;;37.70;22.70;;;;;;;3.91;100.00;94800.28;2081653;28;20056;-64
2024/03/02 02:41:06;;;;;;;41.40;25.40;;;;;;;3.93;100.00;94808.78;2083040;28;20040;-64
2024/03/02 02:42:07;;;;;;;42.17;23.35;;;;;;;3.89;100.00;94796.94;2099238;28;20036;-64
2024/03/02 02:43:08;;;;;;;39.65;23.27;;;;;;;3.87;100.00;94793.59;2098374;28;20513;-64
2024/03/02 02:44:12;;;;;;;38.22;22.10;;;;;;;3.87;100.00;94789.28;2099283;28;20031;-64
2024/03/02 02:45:14;;;;;;;39.25;22.42;;;;;;;3.87;100.00;94789.28;2098988;28;20045;-63
2024/03/02 02:46:15;;;;;;;39.20;22.30;;;;;;;3.85;100.00;94788.53;2099349;28;20048;-63
2024/03/02 02:47:16;;;;;;;42.20;23.50;;;;;;;3.85;100.00;94788.53;2099158;28;20048;-64
2024/03/02 02:48:17;;;;;;;40.55;23.50;;;;;;;3.86;100.00;94789.38;2099315;28;20060;-64
2024/03/02 02:49:18;;;;;;;42.38;23.63;;;;;;;3.84;100.00;94784.28;2099515;28;20037;-63
2024/03/02 02:50:19;;;;;;;42.65;24.45;;;;;;;3.84;100.00;94792.00;2098659;28;20041;-64
2024/03/02 02:51:20;;;;;;;44.75;25.52;;;;;;;3.84;100.00;94794.56;2098508;28;20064;-63
2024/03/02 02:52:22;;;;;;;42.97;24.77;;;;;;;3.81;100.00;94784.41;2099288;28;20041;-64
2024/03/02 02:53:23;;;;;;;45.67;27.63;;;;;;;3.83;100.00;94787.75;2099173;28;20045;-65
2024/03/02 02:54:24;;;;;;;46.92;28.42;;;;;;;3.89;100.00;94796.94;2098554;28;20052;-64
2024/03/02 02:55:25;;;;;;;43.30;24.58;;;;;;;3.84;100.00;94786.84;2098610;28;20044;-64
2024/03/02 02:56:26;;;;;;;49.15;26.17;;;;;;;3.80;100.00;94794.75;2098889;28;20626;-64
2024/03/02 02:57:30;;;;;;;42.67;25.05;;;;;;;3.81;100.00;94788.72;2099095;28;20047;-64
2024/03/02 02:58:31;;;;;;;41.92;24.35;;;;;;;3.78;100.00;94796.53;2098591;28;20055;-63
2024/03/02 02:59:32;;;;;;;49.83;29.13;;;;;;;3.76;100.00;94805.13;2098808;28;20048;-64
2024/03/02 03:00:33;;;;;;;51.78;31.63;;;;;;;3.81;100.00;94794.69;2099145;28;20040;-64
2024/03/02 03:01:34;;;;;;;47.75;29.50;;;;;;;3.81;100.00;94794.69;2099276;28;20040;-64
2024/03/02 03:02:38;;;;;;;46.00;27.83;;;;;;;3.75;100.00;94793.19;2098552;28;20070;-64
2024/03/02 03:03:39;;;;;;;44.00;25.05;;;;;;;3.78;100.00;94796.53;2089780;28;20049;-63
2024/03/02 03:04:40;;;;;;;45.75;26.52;;;;;;;3.75;100.00;94797.50;2089534;28;20428;-63
2024/03/02 03:05:41;;;;;;;44.60;24.13;;;;;;;3.79;100.00;94804.16;2099036;28;20052;-64
2024/03/02 03:06:43;;;;;;;52.80;32.63;;;;;;;3.80;100.00;94805.03;2099153;28;20032;-65
2024/03/02 03:07:44;;;;;;;47.55;27.42;;;;;;;3.75;100.00;94806.03;2098422;28;20040;-64
2024/03/02 03:08:45;;;;;;;50.58;32.15;;;;;;;3.78;100.00;94809.38;2099058;28;20040;-64
2024/03/02 03:09:46;;;;;;;44.08;28.63;;;;;;;3.78;100.00;94806.81;2099058;28;20048;-64
2024/03/02 03:10:48;;;;;;;45.15;26.65;;;;;;;3.76;100.00;94801.72;2099227;28;20503;-63
2024/03/02 03:11:49;;;;;;;51.45;31.98;;;;;;;3.82;100.00;94810.91;2098977;28;20052;-64
2024/03/02 03:12:50;;;;;;;49.55;31.67;;;;;;;3.86;100.00;94812.47;2090301;28;20049;-64
2024/03/02 03:13:51;;;;;;;49.92;32.50;;;;;;;3.83;100.00;94807.47;2090125;28;20041;-65
2024/03/02 03:14:52;;;;;;;47.92;31.35;;;;;;;3.89;100.00;94808.06;2098485;28;20067;-64
2024/03/02 03:15:53;;;;;;;50.33;33.58;;;;;;;3.94;100.00;94807.88;2099276;28;20039;-64
2024/03/02 03:16:54;;;;;;;55.70;34.67;;;;;;;3.96;100.00;94813.78;2098360;28;20041;-64
2024/03/02 03:17:55;;;;;;;49.60;31.88;;;;;;;3.94;100.00;94810.44;2099174;28;20048;-64
2024/03/02 03:18:57;;;;;;;51.35;31.30;;;;;;;3.95;100.00;94807.78;2098881;28;20048;-64
2024/03/02 03:19:58;;;;;;;56.30;34.50;;;;;;;3.98;100.00;94812.84;2098594;28;20408;-64
2024/03/02 03:20:59;;;;;;;50.50;32.03;;;;;;;3.98;100.00;94819.69;2098800;28;20047;-65
2024/03/02 03:22:00;;;;;;;54.30;31.92;;;;;;;3.98;100.00;94817.13;2098894;28;20032;-64
2024/03/02 03:23:01;;;;;;;48.90;30.95;;;;;;;3.98;100.00;94822.25;2098378;28;20045;-64
2024/03/02 03:24:02;;;;;;;54.83;33.53;;;;;;;3.98;100.00;94822.25;2098029;28;20051;-64
2024/03/02 03:25:04;;;;;;;55.53;33.40;;;;;;;3.97;100.00;94818.03;2098458;28;20052;-63
2024/03/02 03:26:05;;;;;;;49.33;31.48;;;;;;;3.97;100.00;94823.16;2098183;28;20060;-63
2024/03/02 03:27:06;;;;;;;49.50;31.10;;;;;;;3.99;100.00;94823.94;2098556;28;20052;-65
2024/03/02 03:28:09;;;;;;;51.05;31.42;;;;;;;3.97;100.00;94820.59;2098360;28;20048;-64
2024/03/02 03:29:10;;;;;;;52.00;32.63;;;;;;;3.93;100.00;94822.47;2098871;28;20481;-64
2024/03/02 03:30:12;;;;;;;49.40;31.30;;;;;;;3.95;100.00;94819.81;2098680;28;20045;-64
2024/03/02 03:31:13;;;;;;;50.72;32.03;;;;;;;3.96;100.00;94827.47;2090030;28;20037;-64
2024/03/02 03:32:14;;;;;;;53.17;32.75;;;;;;;3.94;100.00;94825.84;2090234;28;20041;-64
2024/03/02 03:33:15;;;;;;;50.22;31.70;;;;;;;3.99;100.00;94826.50;2098538;28;20056;-63
2024/03/02 03:34:16;;;;;;;50.83;32.67;;;;;;;4.01;100.00;94832.44;2099250;28;20032;-64
2024/03/02 03:35:18;;;;;;;46.90;31.67;;;;;;;4.00;100.00;94829.91;2097883;28;20052;-64
2024/03/02 03:36:19;;;;;;;46.40;31.35;;;;;;;4.00;100.00;94833.31;2098190;28;20385;-64
2024/03/02 03:37:20;;;;;;;55.25;31.80;;;;;;;4.03;100.00;94832.34;2098779;28;20044;-64
2024/03/02 03:38:21;;;;;;;52.30;33.13;;;;;;;3.98;100.00;94828.25;2098781;28;20032;-64
2024/03/02 03:39:22;;;;;;;48.83;31.52;;;;;;;4.03;100.00;94835.75;2099048;28;20051;-63
2024/03/02 03:40:24;;;;;;;53.17;32.92;;;;;;;4.03;100.00;94840.88;2098555;28;20044;-63
2024/03/02 03:41:25;;;;;;;51.78;33.03;;;;;;;4.02;100.00;94835.81;2098674;28;20075;-64
2024/03/02 03:42:26;;;;;;;51.33;33.40;;;;;;;4.02;100.00;94836.66;2098212;28;20045;-63
2024/03/02 03:43:27;;;;;;;54.45;34.10;;;;;;;3.98;100.00;94832.53;2098263;28;20048;-64
2024/03/02 03:44:28;;;;;;;52.08;33.05;;;;;;;3.98;100.00;94837.66;2098686;28;20052;-65
2024/03/02 03:45:30;;;;;;;51.05;32.30;;;;;;;4.01;100.00;94839.28;2098113;28;20044;-64
2024/03/02 03:46:31;;;;;;;49.55;33.10;;;;;;;4.02;100.00;94831.53;2098861;28;20044;-64
2024/03/02 03:47:32;;;;;;;49.92;31.58;;;;;;;4.03;100.00;94838.31;2090039;28;20037;-64
2024/03/02 03:48:33;;;;;;;54.28;31.80;;;;;;;4.00;100.00;94838.44;2090091;28;20449;-64
2024/03/02 03:49:34;;;;;;;51.80;30.77;;;;;;;3.98;100.00;94842.81;2098743;28;20029;-64
2024/03/02 03:50:36;;;;;;;56.35;33.67;;;;;;;4.00;100.00;94845.31;2098754;28;20036;-65
2024/03/02 03:51:37;;;;;;;50.03;30.77;;;;;;;4.00;100.00;94850.47;2096360;28;20075;-64
2024/03/02 03:52:38;;;;;;;52.55;32.15;;;;;;;4.00;100.00;94846.16;2097732;28;20044;-64
2024/03/02 03:53:39;;;;;;;53.70;32.25;;;;;;;4.00;100.00;94850.47;2099012;28;20043;-64
2024/03/02 03:54:42;;;;;;;50.10;30.38;;;;;;;4.00;100.00;94843.59;2097981;28;20063;-64
2024/03/02 03:55:46;;;;;;;45.80;28.73;;;;;;;4.00;100.00;94848.72;2098005;28;20045;-64
2024/03/02 03:56:47;;;;;;;49.25;32.15;;;;;;;4.01;100.00;94841.84;2098065;28;20052;-64
2024/03/02 03:57:48;;;;;;;54.30;33.58;;;;;;;4.00;100.00;94845.31;2098792;28;20468;-64
2024/03/02 03:58:49;;;;;;;49.53;32.10;;;;;;;4.02;100.00;94848.69;2098676;28;20041;-64
2024/03/02 03:59:50;;;;;;;53.20;32.90;;;;;;;3.96;100.00;94840.31;2098679;28;20036;-64
2024/03/02 04:00:51;;;;;;;52.22;33.10;;;;;;;3.95;100.00;94846.31;2098848;28;20055;-64
2024/03/02 04:01:53;;;;;;;54.33;33.30;;;;;;;3.90;100.00;94842.28;2098339;28;20041;-64
2024/03/02 04:02:54;;;;;;;56.53;32.05;;;;;;;3.94;100.00;94846.41;2098252;28;20416;-64
2024/03/02 04:03:55;;;;;;;49.55;31.23;;;;;;;3.95;100.00;94848.91;2098243;28;20044;-64
2024/03/02 04:04:56;;;;;;;52.85;31.40;;;;;;;3.93;100.00;94844.75;2097975;28;20032;-63
2024/03/02 04:05:57;;;;;;;52.00;31.17;;;;;;;3.96;100.00;94849.75;2098466;28;20041;-64
2024/03/02 04:06:58;;;;;;;50.78;31.20;;;;;;;3.97;100.00;94852.25;2098304;28;20043;-63
2024/03/02 04:08:01;;;;;;;53.15;32.10;;;;;;;3.96;100.00;94849.75;2097248;28;20048;-64
2024/03/02 04:09:03;;;;;;;51.00;31.70;;;;;;;3.93;100.00;94847.31;2097431;28;20499;-65
2024/03/02 04:10:07;;;;;;;50.50;31.30;;;;;;;3.90;100.00;94849.97;2098281;28;20499;-63
2024/03/02 04:11:09;;;;;;;55.60;32.10;;;;;;;3.90;100.00;94858.53;2098293;28;20059;-64
2024/03/02 04:12:10;;;;;;;50.45;30.58;;;;;;;3.90;100.00;94848.28;2098286;28;20040;-63
2024/03/02 04:13:11;;;;;;;48.35;29.40;;;;;;;3.89;100.00;94854.28;2098431;28;20043;-64
2024/03/02 04:14:12;;;;;;;54.05;30.35;;;;;;;3.89;100.00;94856.84;2098654;28;20405;-63
2024/03/02 04:15:13;;;;;;;48.08;29.77;;;;;;;3.89;100.00;94858.59;2098502;28;20044;-64
2024/03/02 04:16:14;;;;;;;50.90;30.65;;;;;;;3.87;100.00;94856.06;2098530;28;20036;-64
2024/03/02 04:17:15;;;;;;;57.25;32.80;;;;;;;3.87;100.00;94853.50;2098511;28;20036;-64
2024/03/02 04:18:16;;;;;;;54.88;32.28;;;;;;;3.88;100.00;94856.94;2098173;28;20049;-65
2024/03/02 04:19:17;;;;;;;51.85;32.53;;;;;;;3.88;100.00;94856.94;2098193;28;20056;-64
2024/03/02 04:20:19;;;;;;;49.55;31.45;;;;;;;3.88;100.00;94850.06;2098667;28;20041;-64
2024/03/02 04:21:20;;;;;;;53.15;32.17;;;;;;;3.84;100.00;94858.75;2098194;28;20047;-63
2024/03/02 04:22:21;;;;;;;53.40;31.55;;;;;;;3.86;100.00;94853.56;2098049;28;20051;-65
2024/03/02 04:23:22;;;;;;;55.70;33.13;;;;;;;3.90;100.00;94852.53;2098605;28;20036;-64
2024/03/02 04:24:23;;;;;;;51.28;30.90;;;;;;;3.91;100.00;94855.06;2098496;28;20040;-64
2024/03/02 04:25:24;;;;;;;59.15;33.63;;;;;;;3.93;100.00;94861.00;2097972;28;20491;-64
2024/03/02 04:26:26;;;;;;;53.65;32.45;;;;;;;3.89;100.00;94856.03;2098200;28;20048;-64
2024/03/02 04:27:27;;;;;;;49.33;31.02;;;;;;;3.85;100.00;94859.59;2097798;28;20048;-64
2024/03/02 04:28:28;;;;;;;53.25;32.85;;;;;;;3.85;100.00;94862.16;2098706;28;20035;-63
2024/03/02 04:29:29;;;;;;;54.65;33.13;;;;;;;3.88;100.00;94862.06;2098464;28;20060;-64
2024/03/02 04:30:30;;;;;;;51.38;31.70;;;;;;;3.92;100.00;94861.88;2098743;28;20040;-63
2024/03/02 04:31:31;;;;;;;51.85;32.45;;;;;;;3.96;100.00;94870.31;2088999;28;20037;-64
2024/03/02 04:32:32;;;;;;;51.70;31.85;;;;;;;3.96;100.00;94863.44;2089515;28;20051;-64
2024/03/02 04:33:33;;;;;;;56.03;33.92;;;;;;;3.97;100.00;94861.69;2097984;28;20511;-64
2024/03/02 04:34:34;;;;;;;52.83;31.98;;;;;;;3.96;100.00;94857.47;2098068;28;20048;-64
2024/03/02 04:35:36;;;;;;;55.55;33.10;;;;;;;3.93;100.00;94858.41;2098366;28;20048;-64
2024/03/02 04:36:37;;;;;;;55.60;34.45;;;;;;;3.92;100.00;94869.56;2098586;28;20055;-64
2024/03/02 04:37:38;;;;;;;54.20;32.50;;;;;;;3.89;100.00;94868.88;2098339;28;20053;-64
2024/03/02 04:38:40;;;;;;;58.00;35.08;;;;;;;3.87;100.00;94871.47;2098149;28;20044;-65
2024/03/02 04:39:41;;;;;;;50.72;32.22;;;;;;;3.84;100.00;94868.19;2098793;28;20068;-64
2024/03/02 04:40:42;;;;;;;57.45;34.80;;;;;;;3.86;100.00;94863.84;2097726;28;20510;-64
2024/03/02 04:41:43;;;;;;;56.63;34.45;;;;;;;3.82;100.00;94863.13;2098354;28;20028;-64
2024/03/02 04:42:44;;;;;;;55.67;32.92;;;;;;;3.85;100.00;94870.72;2097838;28;20052;-64
2024/03/02 04:43:45;;;;;;;48.88;31.10;;;;;;;3.87;100.00;94866.34;2098566;28;20395;-65